Terminal Aerodrome Forecast
Issued by NWS Charleston, WV

Current Version | Previous Version | Graphics & Text | Print | Product List | Glossary On
Versions: 1 2 3 4 5 6 7 8 9 10 11 12 13 14 15 16 17 18 19 20 21
000
FTUS41 KRLX 010200 AAA
TAFPKB
TAF AMD
KPKB 010253Z 0103/0124 33007KT P6SM BKN040
     FM010700 34005KT P6SM BKN025
     FM011000 35005KT 6SM -SHRA BR OVC008
     FM011200 35005KT P6SM BKN015
     FM011500 33010G18KT P6SM BKN035=

USA.gov is the U.S. government's official web portal to all federal, state and local government web resources and services.